createdAt,value
2022-12-15T00:01:28.118Z,96977.91
2022-12-15T00:04:13.204Z,96969.03
2022-12-15T00:06:58.375Z,96978.06
2022-12-15T00:09:43.422Z,96975.72
2022-12-15T00:12:28.605Z,96961.03
2022-12-15T00:15:13.412Z,96951.69
2022-12-15T00:17:58.472Z,96974.09
2022-12-15T00:20:43.307Z,96981.69
2022-12-15T00:23:29.175Z,96981.97
2022-12-15T00:26:14.587Z,96975.72
2022-12-15T00:28:59.691Z,96977.59
2022-12-15T00:31:44.877Z,96978.88
2022-12-15T00:34:30.175Z,96991.63
2022-12-15T00:37:15.527Z,96986.16
2022-12-15T00:39:41.998Z,96984.03
2022-12-15T00:42:08.552Z,96982.66
2022-12-15T00:44:35.082Z,96979.81
2022-12-15T00:47:01.626Z,96986.03
2022-12-15T00:49:47.314Z,96994.81
2022-12-15T00:52:33.535Z,96994.25
2022-12-15T00:55:18.682Z,96996.06
2022-12-15T00:58:03.578Z,96989.63
2022-12-15T01:00:48.519Z,96998.59
2022-12-15T01:03:39.423Z,96998.03
2022-12-15T01:06:31.798Z,97006.69
2022-12-15T01:09:16.824Z,97016.44
2022-12-15T01:12:02.312Z,97016.72
2022-12-15T01:14:47.511Z,97011.09
2022-12-15T01:17:32.658Z,96997.38
2022-12-15T01:20:17.730Z,97004.59
2022-12-15T01:22:48.202Z,97012.94
2022-12-15T01:25:14.954Z,97012.69
2022-12-15T01:27:41.456Z,97007.88
2022-12-15T01:30:08.659Z,97021.38
2022-12-15T01:32:35.113Z,97019.56
2022-12-15T01:35:02.041Z,97025.03
2022-12-15T01:37:28.566Z,97026.44
2022-12-15T01:40:13.748Z,97025.09
2022-12-15T01:42:40.217Z,97023.47
2022-12-15T01:45:41.898Z,97027.56
2022-12-15T01:48:09.778Z,97032.16
2022-12-15T01:50:39.648Z,97038.63
2022-12-15T01:53:05.962Z,97026.97
2022-12-15T01:55:32.485Z,97037.19
2022-12-15T01:58:01.559Z,97038.78
2022-12-15T02:00:28.157Z,97042.31
2022-12-15T02:02:54.893Z,97041.19
2022-12-15T02:05:21.617Z,97042.72
2022-12-15T02:07:48.090Z,97038.84
2022-12-15T02:10:16.325Z,97033.63
2022-12-15T02:13:11.839Z,97033.44
2022-12-15T02:15:38.138Z,97032.09
2022-12-15T02:18:22.384Z,97033.16
2022-12-15T02:20:51.319Z,97044.97
2022-12-15T02:23:33.429Z,97039.31
2022-12-15T02:26:28.285Z,97035.13
2022-12-15T02:29:22.128Z,97055.69
2022-12-15T02:31:58.749Z,97052.78
2022-12-15T02:34:45.243Z,97058.50
2022-12-15T02:37:23.421Z,97063.78
2022-12-15T02:39:50.153Z,97072.97
2022-12-15T02:42:16.611Z,97065.38
2022-12-15T02:45:12.326Z,97060.56
2022-12-15T02:47:59.408Z,97059.19
2022-12-15T02:50:35.218Z,97063.59
2022-12-15T02:53:23.591Z,97070.59
2022-12-15T02:56:18.087Z,97072.22
2022-12-15T02:59:01.073Z,97081.59
2022-12-15T03:01:43.133Z,97081.59
2022-12-15T03:04:10.080Z,97101.53
2022-12-15T03:06:36.555Z,97098.00
2022-12-15T03:09:03.260Z,97091.94
2022-12-15T03:11:29.723Z,97100.06
2022-12-15T03:13:56.351Z,97104.13
2022-12-15T03:16:22.910Z,97107.63
2022-12-15T03:18:49.398Z,97103.31
2022-12-15T03:21:15.939Z,97109.00
2022-12-15T03:23:42.395Z,97112.50
2022-12-15T03:26:09.136Z,97112.78
2022-12-15T03:28:35.632Z,97118.44
2022-12-15T03:31:02.136Z,97121.69
2022-12-15T03:33:28.910Z,97123.84
2022-12-15T03:35:55.986Z,97122.22
2022-12-15T03:38:22.482Z,97122.78
2022-12-15T03:40:48.947Z,97120.66
2022-12-15T03:43:15.464Z,97123.06
2022-12-15T03:45:41.948Z,97125.47
2022-12-15T03:48:08.470Z,97121.16
2022-12-15T03:50:35.531Z,97121.69
2022-12-15T03:53:02.474Z,97126.81
2022-12-15T03:55:28.982Z,97116.03
2022-12-15T03:57:55.574Z,97131.69
2022-12-15T04:00:22.394Z,97134.38
2022-12-15T04:02:50.230Z,97146.78
2022-12-15T04:05:22.220Z,97141.06
2022-12-15T04:07:48.760Z,97142.91
2022-12-15T04:10:15.557Z,97147.56
2022-12-15T04:12:42.054Z,97152.16
2022-12-15T04:15:09.121Z,97143.00
2022-12-15T04:17:35.602Z,97134.63
2022-12-15T04:20:11.163Z,97147.59
2022-12-15T04:22:42.257Z,97150.28
2022-12-15T04:25:31.612Z,97151.03
2022-12-15T04:28:16.645Z,97148.31
2022-12-15T04:31:13.559Z,97146.69
2022-12-15T04:34:00.881Z,97141.81
2022-12-15T04:36:45.885Z,97141.78
2022-12-15T04:39:30.821Z,97150.16
2022-12-15T04:42:16.904Z,97144.53
2022-12-15T04:45:01.910Z,97153.50
2022-12-15T04:47:47.407Z,97152.66
2022-12-15T04:50:32.479Z,97162.09
2022-12-15T04:53:28.214Z,97154.00
2022-12-15T04:56:18.227Z,97159.88
2022-12-15T04:59:03.899Z,97159.09
2022-12-15T05:01:49.057Z,97151.53
2022-12-15T05:04:34.336Z,97158.03
2022-12-15T05:07:19.420Z,97154.06
2022-12-15T05:10:05.451Z,97163.25
2022-12-15T05:12:53.312Z,97170.81
2022-12-15T05:15:38.494Z,97174.03
2022-12-15T05:18:23.627Z,97173.25
2022-12-15T05:21:08.386Z,97165.69
2022-12-15T05:23:53.329Z,97170.81
2022-12-15T05:26:38.370Z,97173.53
2022-12-15T05:29:23.578Z,97180.25
2022-12-15T05:31:54.652Z,97182.69
2022-12-15T05:34:22.051Z,97185.13
2022-12-15T05:36:48.848Z,97185.91
2022-12-15T05:39:15.511Z,97185.13
2022-12-15T05:41:41.990Z,97182.97
2022-12-15T05:44:08.485Z,97187.53
2022-12-15T05:46:35.003Z,97180.53
2022-12-15T05:49:04.890Z,97179.19
2022-12-15T05:51:31.213Z,97189.69
2022-12-15T05:53:57.680Z,97196.72
2022-12-15T05:56:24.793Z,97202.66
2022-12-15T05:58:51.277Z,97203.75
2022-12-15T06:01:18.471Z,97204.81
2022-12-15T06:03:45.138Z,97209.94
2022-12-15T06:06:12.158Z,97215.59
2022-12-15T06:08:39.599Z,97217.50
2022-12-15T06:11:06.193Z,97223.72
2022-12-15T06:13:34.709Z,97228.56
2022-12-15T06:16:03.489Z,97225.31
2022-12-15T06:18:32.019Z,97222.09
2022-12-15T06:21:04.240Z,97223.97
2022-12-15T06:23:32.971Z,97222.34
2022-12-15T06:26:00.133Z,97233.44
2022-12-15T06:28:26.623Z,97231.81
2022-12-15T06:30:53.971Z,97229.09
2022-12-15T06:33:20.805Z,97235.06
2022-12-15T06:35:47.355Z,97235.03
2022-12-15T06:38:13.868Z,97239.06
2022-12-15T06:40:40.397Z,97233.44
2022-12-15T06:43:07.758Z,97242.34
2022-12-15T06:45:34.989Z,97237.75
2022-12-15T06:48:01.918Z,97248.81
2022-12-15T06:50:28.584Z,97249.34
2022-12-15T06:52:55.092Z,97257.97
2022-12-15T06:55:21.543Z,97255.00
2022-12-15T06:57:48.591Z,97253.66
2022-12-15T07:00:15.564Z,97251.25
2022-12-15T07:02:42.881Z,97249.34
2022-12-15T07:05:09.560Z,97256.06
2022-12-15T07:07:36.037Z,97261.75
2022-12-15T07:10:02.643Z,97255.84
2022-12-15T07:12:29.113Z,97251.75
2022-12-15T07:14:55.634Z,97262.56
2022-12-15T07:17:22.096Z,97273.94
2022-12-15T07:19:48.579Z,97276.59
2022-12-15T07:22:15.159Z,97280.13
2022-12-15T07:24:41.647Z,97283.41
2022-12-15T07:27:08.139Z,97296.88
2022-12-15T07:29:34.732Z,97290.94
2022-12-15T07:32:01.682Z,97290.09
2022-12-15T07:34:28.259Z,97297.41
2022-12-15T07:36:55.315Z,97292.81
2022-12-15T07:39:21.869Z,97303.63
2022-12-15T07:41:48.387Z,97296.59
2022-12-15T07:44:15.186Z,97305.00
2022-12-15T07:46:41.739Z,97298.25
2022-12-15T07:49:10.456Z,97302.84
2022-12-15T07:51:37.016Z,97308.50
2022-12-15T07:54:03.569Z,97313.09
2022-12-15T07:56:33.230Z,97317.13
2022-12-15T07:59:02.375Z,97320.94
2022-12-15T08:01:28.975Z,97324.66
2022-12-15T08:03:55.622Z,97320.56
2022-12-15T08:06:22.218Z,97329.19
2022-12-15T08:08:50.380Z,97330.25
2022-12-15T08:11:18.110Z,97327.28
2022-12-15T08:16:31.684Z,97320.47
2022-12-15T08:18:58.313Z,97328.31
2022-12-15T08:21:24.802Z,97336.66
2022-12-15T08:23:51.273Z,97350.16
2022-12-15T08:26:17.942Z,97334.94
2022-12-15T08:28:44.791Z,97342.78
2022-12-15T08:31:16.713Z,97333.06
2022-12-15T08:33:43.466Z,97334.41
2022-12-15T08:36:10.582Z,97340.59
2022-12-15T08:38:38.620Z,97348.09
2022-12-15T08:41:16.165Z,97341.03
2022-12-15T08:43:48.036Z,97340.50
2022-12-15T08:46:16.788Z,97341.31
2022-12-15T08:48:43.377Z,97339.69
2022-12-15T08:51:10.237Z,97347.53
2022-12-15T08:53:36.761Z,97349.94
2022-12-15T08:56:08.009Z,97353.59
2022-12-15T08:58:34.497Z,97355.22
2022-12-15T09:01:06.100Z,97349.50
2022-12-15T09:03:33.988Z,97346.91
2022-12-15T09:06:05.006Z,97353.56
2022-12-15T09:08:31.586Z,97352.19
2022-12-15T09:10:58.644Z,97363.28
2022-12-15T09:13:25.319Z,97364.25
2022-12-15T09:16:10.976Z,97358.78
2022-12-15T09:18:37.926Z,97366.84
2022-12-15T09:21:06.102Z,97364.81
2022-12-15T09:23:33.358Z,97371.16
2022-12-15T09:26:11.311Z,97377.03
2022-12-15T09:28:38.306Z,97374.69
2022-12-15T09:31:06.316Z,97379.72
2022-12-15T09:33:33.541Z,97375.28
2022-12-15T09:36:00.484Z,97379.59
2022-12-15T09:38:26.947Z,97381.09
2022-12-15T09:40:53.477Z,97384.22
2022-12-15T09:43:46.042Z,97390.66
2022-12-15T09:46:26.470Z,97388.75
2022-12-15T09:48:53.216Z,97396.47
2022-12-15T09:51:19.682Z,97384.06
2022-12-15T09:53:55.072Z,97393.56
2022-12-15T09:56:30.143Z,97385.13
2022-12-15T09:59:07.539Z,97381.00
2022-12-15T10:01:57.239Z,97388.09
2022-12-15T10:04:58.461Z,97398.63
2022-12-15T10:07:32.347Z,97396.97
2022-12-15T10:09:58.841Z,97395.53
2022-12-15T10:12:29.690Z,97389.91
2022-12-15T10:15:22.760Z,97393.72
2022-12-15T10:18:10.261Z,97387.78
2022-12-15T10:20:36.744Z,97402.94
2022-12-15T10:23:13.398Z,97395.94
2022-12-15T10:25:40.112Z,97392.97
2022-12-15T10:28:15.697Z,97387.03
2022-12-15T10:30:45.077Z,97387.09
2022-12-15T10:33:25.460Z,97392.91
2022-12-15T10:35:55.306Z,97393.63
2022-12-15T10:38:26.356Z,97397.28
2022-12-15T10:40:57.054Z,97404.75
2022-12-15T10:43:36.596Z,97407.34
2022-12-15T10:46:04.219Z,97411.50
2022-12-15T10:48:30.868Z,97399.84
2022-12-15T10:51:20.230Z,97404.00
2022-12-15T10:54:01.886Z,97400.47
2022-12-15T10:56:33.687Z,97397.72
2022-12-15T10:59:21.223Z,97399.97
2022-12-15T11:01:47.776Z,97402.13
2022-12-15T11:04:27.490Z,97400.34
2022-12-15T11:07:01.369Z,97411.00
2022-12-15T11:09:33.351Z,97402.13
2022-12-15T11:12:18.431Z,97399.41
2022-12-15T11:14:45.967Z,97401.66
2022-12-15T11:17:18.463Z,97400.63
2022-12-15T11:20:03.612Z,97400.81
2022-12-15T11:22:37.723Z,97399.44
2022-12-15T11:25:37.112Z,97401.03
2022-12-15T11:28:06.896Z,97404.25
2022-12-15T11:30:35.288Z,97407.09
2022-12-15T11:33:01.772Z,97411.66
2022-12-15T11:35:46.477Z,97402.88
2022-12-15T11:38:42.443Z,97403.88
2022-12-15T11:41:34.038Z,97398.72
2022-12-15T11:44:08.656Z,97402.25
2022-12-15T11:46:44.007Z,97399.53
2022-12-15T11:49:41.203Z,97400.13
2022-12-15T11:52:35.902Z,97399.72
2022-12-15T11:55:25.790Z,97389.31
2022-12-15T11:58:02.443Z,97406.03
2022-12-15T12:00:28.918Z,97410.50
2022-12-15T12:03:00.904Z,97402.97
2022-12-15T12:05:42.618Z,97400.66
2022-12-15T12:08:15.059Z,97391.75
2022-12-15T12:10:59.888Z,97388.94
2022-12-15T12:13:57.412Z,97387.22
2022-12-15T12:16:56.895Z,97385.00
2022-12-15T12:19:41.128Z,97388.31
2022-12-15T12:22:13.740Z,97385.28
2022-12-15T12:24:43.819Z,97378.31
2022-12-15T12:27:10.197Z,97378.44
2022-12-15T12:29:42.715Z,97384.28
2022-12-15T12:32:24.833Z,97385.69
2022-12-15T12:35:31.522Z,97384.88
2022-12-15T12:37:54.889Z,97383.13
2022-12-15T12:40:52.247Z,97379.00
2022-12-15T12:43:36.831Z,97379.22
2022-12-15T12:46:05.159Z,97377.69
2022-12-15T12:48:40.808Z,97380.75
2022-12-15T12:51:29.831Z,97379.72
2022-12-15T12:53:57.337Z,97392.09
2022-12-15T12:56:43.251Z,97392.47
2022-12-15T12:59:28.539Z,97387.78
2022-12-15T13:01:56.113Z,97381.69
2022-12-15T13:04:28.782Z,97372.44
2022-12-15T13:06:55.252Z,97384.75
2022-12-15T13:09:23.006Z,97390.94
2022-12-15T13:11:49.448Z,97395.72
2022-12-15T13:14:38.919Z,97395.63
2022-12-15T13:17:26.655Z,97401.16
2022-12-15T13:19:53.998Z,97397.53
2022-12-15T13:22:25.094Z,97397.03
2022-12-15T13:24:51.577Z,97394.75
2022-12-15T13:27:19.267Z,97395.47
2022-12-15T13:30:03.147Z,97382.88
2022-12-15T13:32:32.899Z,97382.66
2022-12-15T13:35:15.090Z,97381.34
2022-12-15T13:37:45.510Z,97382.09
2022-12-15T13:40:37.775Z,97372.25
2022-12-15T13:43:04.124Z,97362.28
2022-12-15T13:45:48.945Z,97365.50
2022-12-15T13:48:22.433Z,97364.06
2022-12-15T13:50:56.712Z,97369.84
2022-12-15T13:53:23.620Z,97366.66
2022-12-15T13:55:55.040Z,97367.94
2022-12-15T13:58:21.766Z,97362.63
2022-12-15T14:00:50.887Z,97376.50
2022-12-15T14:03:17.403Z,97367.31
2022-12-15T14:05:54.331Z,97361.63
2022-12-15T14:08:21.350Z,97363.13
2022-12-15T14:10:52.951Z,97362.25
2022-12-15T14:13:26.438Z,97362.22
2022-12-15T14:15:58.529Z,97357.66
2022-12-15T14:18:35.888Z,97359.47
2022-12-15T14:21:06.108Z,97354.00
2022-12-15T14:23:40.744Z,97362.34
2022-12-15T14:26:11.939Z,97363.53
2022-12-15T14:28:40.428Z,97357.53
2022-12-15T14:31:23.731Z,97361.63
2022-12-15T14:33:52.215Z,97360.66
2022-12-15T14:36:19.300Z,97357.16
2022-12-15T14:38:54.833Z,97364.69
2022-12-15T14:41:25.526Z,97359.56
2022-12-15T14:44:32.159Z,97365.31
2022-12-15T14:46:38.983Z,97360.88
2022-12-15T14:49:07.415Z,97352.66
2022-12-15T14:51:46.088Z,97364.34
2022-12-15T14:54:33.126Z,97356.81
2022-12-15T14:57:01.328Z,97358.34
2022-12-15T14:59:31.437Z,97357.31
2022-12-15T15:02:13.714Z,97360.63
2022-12-15T15:04:41.089Z,97365.47
2022-12-15T15:07:17.802Z,97359.38
2022-12-15T15:09:45.091Z,97348.41
2022-12-15T15:12:21.268Z,97352.56
2022-12-15T15:14:53.666Z,97351.91
2022-12-15T15:17:24.715Z,97342.22
2022-12-15T15:20:00.600Z,97341.66
2022-12-15T15:22:26.993Z,97336.34
2022-12-15T15:24:53.748Z,97336.34
2022-12-15T15:27:24.195Z,97334.84
2022-12-15T15:29:51.017Z,97334.94
2022-12-15T15:32:20.215Z,97329.41
2022-12-15T15:34:47.234Z,97341.50
2022-12-15T15:37:23.446Z,97337.34
2022-12-15T15:39:53.511Z,97337.34
2022-12-15T15:42:20.069Z,97326.47
2022-12-15T15:44:46.698Z,97335.63
2022-12-15T15:47:23.487Z,97327.00
2022-12-15T15:49:50.514Z,97332.94
2022-12-15T15:52:16.994Z,97338.63
2022-12-15T15:54:43.524Z,97338.28
2022-12-15T15:57:15.568Z,97342.84
2022-12-15T15:59:44.005Z,97346.41
2022-12-15T16:02:11.454Z,97341.25
2022-12-15T16:04:42.064Z,97342.06
2022-12-15T16:07:25.565Z,97354.13
2022-12-15T16:09:52.484Z,97358.28
2022-12-15T16:12:27.848Z,97355.13
2022-12-15T16:14:55.142Z,97360.59
2022-12-15T16:17:22.230Z,97362.50
2022-12-15T16:19:48.954Z,97365.34
2022-12-15T16:22:16.959Z,97362.81
2022-12-15T16:24:43.578Z,97365.09
2022-12-15T16:27:11.037Z,97368.91
2022-12-15T16:29:37.508Z,97377.00
2022-12-15T16:32:05.777Z,97385.56
2022-12-15T16:34:32.687Z,97383.38
2022-12-15T16:36:59.192Z,97387.72
2022-12-15T16:39:31.721Z,97400.75
2022-12-15T16:41:58.347Z,97400.00
2022-12-15T16:44:25.867Z,97394.34
2022-12-15T16:46:52.464Z,97387.88
2022-12-15T16:49:18.978Z,97390.84
2022-12-15T16:51:47.146Z,97407.81
2022-12-15T16:54:19.341Z,97407.31
2022-12-15T16:56:45.834Z,97403.56
2022-12-15T16:59:32.559Z,97400.59
2022-12-15T17:02:00.528Z,97405.44
2022-12-15T17:04:27.200Z,97401.41
2022-12-15T17:06:53.705Z,97419.25
2022-12-15T17:09:22.038Z,97421.16
2022-12-15T17:11:48.539Z,97426.81
2022-12-15T17:14:15.847Z,97431.44
2022-12-15T17:16:42.423Z,97431.09
2022-12-15T17:19:08.917Z,97422.44
2022-12-15T17:21:38.393Z,97432.19
2022-12-15T17:24:06.644Z,97428.16
2022-12-15T17:26:35.110Z,97430.59
2022-12-15T17:29:06.028Z,97427.38
2022-12-15T17:31:35.577Z,97427.38
2022-12-15T17:34:14.920Z,97417.38
2022-12-15T17:36:41.479Z,97418.97
2022-12-15T17:39:09.921Z,97417.63
2022-12-15T17:41:58.822Z,97432.25
2022-12-15T17:44:33.474Z,97441.97
2022-12-15T17:47:01.759Z,97432.22
2022-12-15T17:49:34.742Z,97441.44
2022-12-15T17:52:02.504Z,97436.03
2022-12-15T17:54:29.700Z,97431.97
2022-12-15T17:56:56.187Z,97439.28
2022-12-15T17:59:22.780Z,97440.56
2022-12-15T18:01:49.417Z,97448.16
2022-12-15T18:04:16.152Z,97450.34
2022-12-15T18:06:42.872Z,97451.97
2022-12-15T18:09:16.562Z,97450.34
2022-12-15T18:11:45.176Z,97458.97
2022-12-15T18:14:16.579Z,97454.28
2022-12-15T18:16:43.179Z,97449.34
2022-12-15T18:19:09.743Z,97454.56
2022-12-15T18:21:36.502Z,97448.91
2022-12-15T18:24:03.164Z,97449.72
2022-12-15T18:26:31.376Z,97455.16
2022-12-15T18:28:57.854Z,97452.41
2022-12-15T18:31:26.219Z,97461.09
2022-12-15T18:33:53.422Z,97460.34
2022-12-15T18:36:20.184Z,97468.44
2022-12-15T18:38:46.691Z,97476.03
2022-12-15T18:41:14.257Z,97485.22
2022-12-15T18:43:40.920Z,97473.31
2022-12-15T18:46:14.728Z,97461.16
2022-12-15T18:48:41.651Z,97457.09
2022-12-15T18:51:18.628Z,97450.06
2022-12-15T18:53:45.208Z,97455.72
2022-12-15T18:56:13.640Z,97462.22
2022-12-15T18:58:40.110Z,97467.66
2022-12-15T19:01:06.881Z,97450.84
2022-12-15T19:03:33.872Z,97453.31
2022-12-15T19:06:10.789Z,97466.84
2022-12-15T19:08:38.139Z,97474.94
2022-12-15T19:11:12.728Z,97459.53
2022-12-15T19:13:39.294Z,97443.03
2022-12-15T19:16:07.034Z,97444.69
2022-12-15T19:18:52.259Z,97459.28
2022-12-15T19:21:48.074Z,97454.41
2022-12-15T19:24:18.370Z,97444.94
2022-12-15T19:26:44.855Z,97453.56
2022-12-15T19:29:15.908Z,97451.69
2022-12-15T19:31:42.438Z,97460.91
2022-12-15T19:34:09.292Z,97454.66
2022-12-15T19:36:37.063Z,97456.53
2022-12-15T19:39:03.825Z,97454.69
2022-12-15T19:41:30.627Z,97455.47
2022-12-15T19:43:57.602Z,97458.47
2022-12-15T19:46:24.765Z,97455.44
2022-12-15T19:48:51.289Z,97448.69
2022-12-15T19:51:19.287Z,97461.41
2022-12-15T19:53:46.737Z,97457.91
2022-12-15T19:56:15.696Z,97451.69
2022-12-15T19:58:42.262Z,97456.00
2022-12-15T20:01:17.146Z,97456.00
2022-12-15T20:03:45.393Z,97449.50
2022-12-15T20:06:17.925Z,97452.19
2022-12-15T20:08:45.665Z,97451.94
2022-12-15T20:11:17.595Z,97458.16
2022-12-15T20:13:44.355Z,97456.28
2022-12-15T20:16:10.962Z,97456.56
2022-12-15T20:18:37.783Z,97457.09
2022-12-15T20:21:04.312Z,97448.19
2022-12-15T20:23:31.821Z,97453.59
2022-12-15T20:25:58.661Z,97444.16
2022-12-15T20:28:27.083Z,97446.84
2022-12-15T20:30:54.039Z,97439.53
2022-12-15T20:33:20.901Z,97451.19
2022-12-15T20:35:48.106Z,97446.81
2022-12-15T20:38:21.155Z,97447.63
2022-12-15T20:40:47.654Z,97449.53
2022-12-15T20:43:16.174Z,97459.53
2022-12-15T20:45:43.020Z,97454.41
2022-12-15T20:48:11.608Z,97450.06
2022-12-15T20:50:41.361Z,97461.16
2022-12-15T20:53:15.869Z,97461.44
2022-12-15T20:55:42.431Z,97454.13
2022-12-15T20:58:09.413Z,97459.00
2022-12-15T21:00:35.874Z,97464.94
2022-12-15T21:03:02.549Z,97468.47
2022-12-15T21:05:29.592Z,97463.00
2022-12-15T21:07:56.065Z,97466.53
2022-12-15T21:10:22.572Z,97462.50
2022-12-15T21:12:49.429Z,97472.25
2022-12-15T21:15:22.029Z,97466.28
2022-12-15T21:18:11.056Z,97470.38
2022-12-15T21:20:40.678Z,97467.09
2022-12-15T21:23:21.299Z,97467.91
2022-12-15T21:25:47.904Z,97466.28
2022-12-15T21:28:14.616Z,97464.16
2022-12-15T21:30:41.243Z,97460.09
2022-12-15T21:33:07.751Z,97461.13
2022-12-15T21:35:34.266Z,97463.31
2022-12-15T21:38:00.757Z,97462.47
2022-12-15T21:40:28.773Z,97459.47
2022-12-15T21:42:55.289Z,97465.50
2022-12-15T21:45:23.559Z,97473.63
2022-12-15T21:48:09.276Z,97478.72
2022-12-15T21:50:36.677Z,97484.13
2022-12-15T21:53:03.707Z,97486.31
2022-12-15T21:55:30.215Z,97484.13
2022-12-15T21:57:57.321Z,97482.69
2022-12-15T22:00:24.296Z,97479.44
2022-12-15T22:02:52.175Z,97475.38
2022-12-15T22:05:29.366Z,97479.69
2022-12-15T22:07:57.339Z,97472.94
2022-12-15T22:10:24.447Z,97480.25
2022-12-15T22:12:57.444Z,97488.28
2022-12-15T22:15:26.240Z,97482.28
2022-12-15T22:17:52.741Z,97484.84
2022-12-15T22:20:21.377Z,97475.41
2022-12-15T22:22:48.382Z,97481.31
2022-12-15T22:25:19.246Z,97487.75
2022-12-15T22:27:46.936Z,97486.53
2022-12-15T22:30:14.975Z,97491.41
2022-12-15T22:32:41.767Z,97485.44
2022-12-15T22:35:25.125Z,97484.09
2022-12-15T22:37:53.942Z,97489.75
2022-12-15T22:40:22.119Z,97484.38
2022-12-15T22:45:42.685Z,97479.16
2022-12-15T22:48:09.762Z,97484.81
2022-12-15T22:50:36.273Z,97485.03
2022-12-15T22:53:03.032Z,97485.84
2022-12-15T22:55:29.554Z,97471.63
2022-12-15T22:57:58.079Z,97484.13
2022-12-15T23:00:24.596Z,97484.34
2022-12-15T23:02:51.325Z,97482.22
2022-12-15T23:05:19.122Z,97491.16
2022-12-15T23:07:45.594Z,97501.97
2022-12-15T23:10:32.703Z,97504.38
2022-12-15T23:12:59.186Z,97507.88
2022-12-15T23:15:45.366Z,97509.56
2022-12-15T23:18:11.952Z,97506.31
2022-12-15T23:20:38.428Z,97513.34
2022-12-15T23:23:04.948Z,97508.19
2022-12-15T23:25:31.423Z,97501.47
2022-12-15T23:27:58.176Z,97501.94
2022-12-15T23:30:24.658Z,97506.00
2022-12-15T23:32:51.137Z,97504.69
2022-12-15T23:35:21.750Z,97514.41
2022-12-15T23:37:48.228Z,97514.41
2022-12-15T23:40:19.923Z,97514.41
2022-12-15T23:42:46.736Z,97513.31
2022-12-15T23:45:13.252Z,97512.00
2022-12-15T23:47:39.780Z,97509.81
2022-12-15T23:50:07.214Z,97518.19
2022-12-15T23:52:34.285Z,97520.88
2022-12-15T23:55:00.829Z,97525.22
2022-12-15T23:57:28.573Z,97517.13
2022-12-15T23:59:55.124Z,97522.81
